Time;durP1;ratioP1;P1;durP2;ratioP2;P2;SDS_P1;SDS_P2;PMS_P1;PMS_P2;Temp;Humidity;BMP_temperature;BMP_pressure;BME280_temperature;BME280_humidity;BME280_pressure;Samples;Min_cycle;Max_cycle;Signal;HPM_P1;HPM_P2
2023/12/31 00:04:10;;;;;;;5.05;1.40;;;;;;;7.99;100.00;100160.72;10506115;28;20458;-79
2023/12/31 00:09:11;;;;;;;1.38;0.50;;;;;;;8.08;100.00;100149.81;10513951;28;20041;-78
2023/12/31 00:14:11;;;;;;;1.10;0.65;;;;;;;8.07;100.00;100141.09;10502322;28;20033;-79
2023/12/31 00:19:12;;;;;;;1.25;0.77;;;;;;;8.09;100.00;100112.50;10506161;28;20598;-80
2023/12/31 00:24:12;;;;;;;1.23;0.80;;;;;;;8.03;100.00;100107.00;10509783;28;20184;-80
2023/12/31 00:29:13;;;;;;;3.13;1.27;;;;;;;8.04;100.00;100109.69;10507842;28;20234;-78
2023/12/31 00:34:13;;;;;;;2.00;0.50;;;;;;;8.01;100.00;100098.22;10510846;28;20062;-78
2023/12/31 00:39:14;;;;;;;0.63;0.30;;;;;;;8.00;100.00;100089.53;10480483;28;20124;-78
2023/12/31 00:44:14;;;;;;;2.60;0.95;;;;;;;7.90;100.00;100075.16;10504154;28;20115;-78
2023/12/31 00:49:15;;;;;;;2.25;0.90;;;;;;;7.79;100.00;100059.06;10468405;28;20032;-78
2023/12/31 00:54:15;;;;;;;2.22;0.90;;;;;;;7.71;100.00;100062.13;10495495;28;20120;-78
2023/12/31 00:59:16;;;;;;;2.28;1.08;;;;;;;7.59;100.00;100033.81;10503524;28;20154;-78
2023/12/31 01:04:16;;;;;;;3.08;0.98;;;;;;;7.49;100.00;100014.25;10494642;28;20037;-78
2023/12/31 01:09:17;;;;;;;1.90;0.80;;;;;;;7.46;100.00;100003.69;10505711;28;20032;-78
2023/12/31 01:14:17;;;;;;;2.28;0.93;;;;;;;7.41;100.00;100002.59;10481054;28;20071;-78
2023/12/31 01:19:18;;;;;;;2.33;0.98;;;;;;;7.49;100.00;99990.81;10503329;28;20033;-78
2023/12/31 01:24:18;;;;;;;3.33;1.45;;;;;;;7.42;100.00;99975.72;10490672;28;20458;-78
2023/12/31 01:29:19;;;;;;;2.78;1.33;;;;;;;7.31;100.00;99972.66;10491526;28;20025;-79
2023/12/31 01:34:19;;;;;;;3.63;1.65;;;;;;;7.29;100.00;99954.34;10477474;28;20037;-78
2023/12/31 01:39:20;;;;;;;3.45;0.93;;;;;;;7.26;100.00;99954.19;10513965;28;20039;-79
2023/12/31 01:44:21;;;;;;;2.63;1.00;;;;;;;7.26;100.00;99949.00;10500445;28;20063;-81
2023/12/31 01:49:21;;;;;;;2.10;0.82;;;;;;;7.14;100.00;99943.22;10511449;28;20234;-78
2023/12/31 01:54:22;;;;;;;3.72;0.98;;;;;;;6.96;100.00;99940.66;10497665;28;20078;-78
2023/12/31 01:59:22;;;;;;;1.10;0.70;;;;;;;6.94;100.00;99932.75;10486692;28;20430;-78
2023/12/31 02:04:23;;;;;;;2.67;1.02;;;;;;;6.99;100.00;99920.00;10497027;28;20127;-78
2023/12/31 02:09:24;;;;;;;2.03;1.08;;;;;;;7.12;100.00;99919.75;10487855;28;20035;-78
2023/12/31 02:14:24;;;;;;;0.75;0.73;;;;;;;7.09;100.00;99922.19;10465172;28;20670;-77
2023/12/31 02:19:25;;;;;;;4.05;1.08;;;;;;;7.13;100.00;99905.00;10503893;28;20177;-77
2023/12/31 02:24:30;;;;;;;1.45;0.70;;;;;;;7.04;100.00;99893.34;10494195;28;20075;-78
2023/12/31 02:29:31;;;;;;;1.50;0.95;;;;;;;7.10;100.00;99877.16;10488096;28;20044;-78
2023/12/31 02:34:32;;;;;;;1.85;1.10;;;;;;;7.09;100.00;99870.16;10493199;28;20056;-78
2023/12/31 02:39:32;;;;;;;1.95;0.75;;;;;;;6.96;100.00;99849.59;10498358;28;20423;-78
2023/12/31 02:44:33;;;;;;;3.22;1.15;;;;;;;7.14;100.00;99837.44;10491642;28;20127;-78
2023/12/31 02:49:33;;;;;;;2.58;1.13;;;;;;;7.08;100.00;99831.03;10504457;28;20088;-78
2023/12/31 02:54:34;;;;;;;1.30;0.60;;;;;;;7.03;100.00;99820.44;10489395;28;20041;-78
2023/12/31 02:59:34;;;;;;;1.45;1.13;;;;;;;7.10;100.00;99812.09;10514407;28;20067;-79
2023/12/31 03:04:39;;;;;;;1.05;0.80;;;;;;;7.16;100.00;99793.25;10489017;28;20070;-79
2023/12/31 03:09:39;;;;;;;1.40;0.77;;;;;;;7.30;100.00;99792.13;10516456;28;20145;-78
2023/12/31 03:14:40;;;;;;;2.90;0.85;;;;;;;7.35;100.00;99774.13;10503503;28;20178;-78
2023/12/31 03:19:40;;;;;;;3.33;1.08;;;;;;;7.30;100.00;99766.09;10516134;28;20558;-78
2023/12/31 03:24:42;;;;;;;2.00;1.10;;;;;;;7.29;100.00;99748.72;10507108;28;20051;-78
2023/12/31 03:29:42;;;;;;;2.03;1.23;;;;;;;7.29;100.00;99751.31;10499976;28;20499;-78
2023/12/31 03:34:43;;;;;;;2.10;0.90;;;;;;;7.28;100.00;99731.31;10503252;28;20148;-79
2023/12/31 03:39:43;;;;;;;1.80;1.08;;;;;;;7.15;100.00;99721.22;10513271;28;20119;-79
2023/12/31 03:44:44;;;;;;;1.80;0.75;;;;;;;7.06;100.00;99706.09;10504961;28;20039;-79
2023/12/31 03:49:44;;;;;;;1.85;1.27;;;;;;;7.10;100.00;99686.28;10511978;28;20036;-78
2023/12/31 03:54:45;;;;;;;2.80;1.88;;;;;;;7.09;100.00;99680.22;10495819;28;20042;-78
2023/12/31 03:59:45;;;;;;;1.75;0.95;;;;;;;7.08;100.00;99659.31;10511883;28;20158;-79
2023/12/31 04:04:46;;;;;;;3.33;1.60;;;;;;;7.15;100.00;99650.94;10487224;28;20036;-78
2023/12/31 04:09:46;;;;;;;2.05;1.13;;;;;;;7.27;100.00;99643.66;10480633;28;20075;-82
2023/12/31 04:14:47;;;;;;;2.30;1.00;;;;;;;7.30;100.00;99630.75;10507011;28;20123;-78
2023/12/31 04:19:47;;;;;;;3.13;1.50;;;;;;;7.34;100.00;99614.44;10501675;28;20549;-79
2023/12/31 04:24:48;;;;;;;2.75;1.58;;;;;;;7.52;100.00;99607.31;10509452;28;20127;-76
2023/12/31 04:29:48;;;;;;;3.40;1.40;;;;;;;7.56;100.00;99591.00;10506531;28;20064;-78
2023/12/31 04:34:49;;;;;;;3.13;1.40;;;;;;;7.56;100.00;99581.47;10508226;28;20519;-79
2023/12/31 04:39:49;;;;;;;2.63;1.42;;;;;;;7.56;100.00;99567.56;10499918;28;20040;-77
2023/12/31 04:44:50;;;;;;;2.80;1.52;;;;;;;7.61;100.00;99564.28;10508076;28;20586;-77
2023/12/31 04:49:50;;;;;;;4.82;1.40;;;;;;;7.63;100.00;99551.34;10479295;28;20123;-77
2023/12/31 04:54:51;;;;;;;3.20;1.95;;;;;;;7.58;100.00;99548.56;10502170;28;20064;-79
2023/12/31 04:59:51;;;;;;;5.50;1.73;;;;;;;7.55;100.00;99531.94;10492172;28;20117;-81
2023/12/31 05:04:52;;;;;;;3.80;1.70;;;;;;;7.52;100.00;99522.28;10507560;28;20086;-79
2023/12/31 05:09:52;;;;;;;2.55;1.48;;;;;;;7.51;100.00;99525.72;10502737;28;20044;-78
2023/12/31 05:14:53;;;;;;;3.33;1.88;;;;;;;7.43;100.00;99506.31;10507948;28;21289;-80
2023/12/31 05:19:53;;;;;;;2.65;2.00;;;;;;;7.43;100.00;99491.59;10507868;28;20044;-80
2023/12/31 05:24:54;;;;;;;3.20;2.00;;;;;;;7.45;100.00;99486.44;10498882;28;20109;-80
2023/12/31 05:29:54;;;;;;;2.90;1.52;;;;;;;7.34;100.00;99489.50;10495121;28;20043;-79
2023/12/31 05:34:55;;;;;;;4.57;2.65;;;;;;;7.29;100.00;99472.81;10503653;28;20052;-80
2023/12/31 05:39:55;;;;;;;4.28;2.72;;;;;;;7.31;100.00;99465.09;10499550;28;20044;-79
2023/12/31 05:44:56;;;;;;;8.52;2.63;;;;;;;7.31;100.00;99460.75;10500950;28;20119;-79
2023/12/31 05:49:56;;;;;;;5.43;2.60;;;;;;;7.40;100.00;99459.34;10501012;28;20056;-79
2023/12/31 05:54:57;;;;;;;3.55;2.15;;;;;;;7.57;100.00;99431.34;10506784;28;20043;-79
2023/12/31 05:59:59;;;;;;;3.67;1.83;;;;;;;7.69;100.00;99428.28;10481762;28;20041;-79
2023/12/31 06:04:59;;;;;;;;;;;;;;;7.68;100.00;99421.31;10501247;28;20136;-80
2023/12/31 06:10:00;;;;;;;5.88;2.78;;;;;;;7.58;100.00;99436.59;10493822;28;19929;-79
2023/12/31 06:15:05;;;;;;;2.78;1.73;;;;;;;7.56;100.00;99422.63;10517067;28;20028;-79
2023/12/31 06:20:06;;;;;;;5.30;2.70;;;;;;;7.54;100.00;99413.88;10478279;28;20040;-79
2023/12/31 06:25:07;;;;;;;5.13;1.77;;;;;;;7.59;100.00;99407.13;10500924;28;20112;-79
2023/12/31 06:30:07;;;;;;;2.60;2.17;;;;;;;7.58;100.00;99407.94;10497381;28;20040;-79
2023/12/31 06:35:08;;;;;;;4.05;1.90;;;;;;;7.40;100.00;99408.19;10478757;28;20496;-79
2023/12/31 06:40:09;;;;;;;6.20;2.45;;;;;;;7.29;100.00;99401.69;10481405;28;20068;-79
2023/12/31 06:45:10;;;;;;;3.75;2.47;;;;;;;7.28;100.00;99398.19;10500528;28;20059;-80
2023/12/31 06:50:11;;;;;;;4.57;2.42;;;;;;;7.63;100.00;99382.09;10492728;28;20473;-79
2023/12/31 06:55:12;;;;;;;3.10;1.75;;;;;;;7.82;100.00;99359.31;10501215;28;20040;-78
2023/12/31 07:00:12;;;;;;;5.07;2.67;;;;;;;7.97;100.00;99351.09;10480377;28;20068;-79
2023/12/31 07:05:13;;;;;;;4.97;2.58;;;;;;;8.26;100.00;99335.56;10502155;28;20502;-78
2023/12/31 07:10:14;;;;;;;4.05;2.20;;;;;;;8.44;100.00;99328.31;10483365;28;20575;-79
2023/12/31 07:15:14;;;;;;;6.38;2.83;;;;;;;8.62;100.00;99320.22;10461494;28;20539;-78
2023/12/31 07:20:17;;;;;;;5.13;2.45;;;;;;;8.64;100.00;99320.25;10482860;28;20036;-79
2023/12/31 07:25:18;;;;;;;5.95;2.80;;;;;;;8.68;100.00;99305.59;10499624;28;20052;-79
2023/12/31 07:30:19;;;;;;;5.57;2.67;;;;;;;8.81;100.00;99306.00;10497657;28;20097;-79
2023/12/31 07:35:19;;;;;;;3.92;2.70;;;;;;;8.87;100.00;99300.09;10503468;28;20123;-78
2023/12/31 07:40:20;;;;;;;4.20;2.25;;;;;;;8.81;100.00;99292.09;10485005;28;20130;-79
2023/12/31 07:45:20;;;;;;;4.72;2.70;;;;;;;8.89;100.00;99306.25;10496053;28;20051;-78
2023/12/31 07:50:21;;;;;;;4.55;2.30;;;;;;;8.97;100.00;99311.66;10516644;28;20495;-77
2023/12/31 07:55:21;;;;;;;4.55;3.08;;;;;;;9.02;100.00;99304.00;10498684;28;20036;-78
2023/12/31 08:00:22;;;;;;;4.97;2.78;;;;;;;9.04;100.00;99297.97;10492318;28;20140;-78
2023/12/31 08:05:23;;;;;;;3.83;2.30;;;;;;;9.08;100.00;99289.38;10515311;28;20061;-78
2023/12/31 08:10:23;;;;;;;5.03;2.63;;;;;;;9.14;100.00;99269.50;10493950;28;20048;-78
2023/12/31 08:15:24;;;;;;;4.25;2.63;;;;;;;9.16;100.00;99276.56;10499384;28;20165;-78
2023/12/31 08:20:24;;;;;;;5.78;2.78;;;;;;;9.13;100.00;99276.47;10498884;28;20072;-77
2023/12/31 08:25:25;;;;;;;6.45;3.28;;;;;;;9.19;100.00;99278.34;10487195;28;20488;-79
2023/12/31 08:30:26;;;;;;;4.30;2.60;;;;;;;9.26;100.00;99282.91;10466030;28;20047;-78
2023/12/31 08:35:27;;;;;;;6.53;2.83;;;;;;;9.26;100.00;99269.84;10485043;28;20081;-78
2023/12/31 08:40:30;;;;;;;3.63;2.22;;;;;;;9.29;100.00;99272.53;10496106;28;20122;-78
2023/12/31 08:45:32;;;;;;;3.67;2.47;;;;;;;9.31;100.00;99278.69;10513036;28;20071;-78
2023/12/31 08:50:33;;;;;;;4.63;2.50;;;;;;;9.09;100.00;99264.19;10497835;28;20033;-77
2023/12/31 08:55:33;;;;;;;4.18;2.55;;;;;;;8.76;100.00;99278.03;10481236;28;20040;-78
2023/12/31 09:00:34;;;;;;;5.00;2.25;;;;;;;8.55;100.00;99267.81;10493188;28;20128;-79
2023/12/31 09:05:34;;;;;;;5.45;2.90;;;;;;;8.61;100.00;99263.69;10485201;28;20089;-81
2023/12/31 09:10:35;;;;;;;5.13;3.15;;;;;;;8.80;100.00;99269.44;10438874;28;21633;-78
2023/12/31 09:15:36;;;;;;;2.35;1.65;;;;;;;9.06;100.00;99279.75;10485510;28;20168;-78
2023/12/31 09:20:36;;;;;;;2.27;1.37;;;;;;;9.15;100.00;99277.41;10480520;28;20127;-78
2023/12/31 09:25:37;;;;;;;3.88;1.90;;;;;;;9.09;100.00;99285.06;10485399;28;20479;-78
2023/12/31 09:30:37;;;;;;;1.55;1.00;;;;;;;9.10;100.00;99302.50;10487174;28;20040;-79
2023/12/31 09:35:38;;;;;;;1.73;1.00;;;;;;;9.25;100.00;99291.56;10460883;28;20551;-79
2023/12/31 09:40:39;;;;;;;7.00;2.95;;;;;;;9.35;100.00;99292.72;10422958;28;20063;-80
2023/12/31 09:45:40;;;;;;;2.40;1.50;;;;;;;9.34;100.00;99293.56;10437553;28;20037;-78
2023/12/31 09:50:40;;;;;;;3.10;1.30;;;;;;;9.14;100.00;99320.00;10440836;28;20064;-80
2023/12/31 09:55:41;;;;;;;1.90;1.02;;;;;;;8.74;100.00;99313.63;10407155;28;20121;-79
2023/12/31 10:00:42;;;;;;;1.38;0.88;;;;;;;8.66;100.00;99342.06;10417990;28;20049;-78
2023/12/31 10:05:42;;;;;;;1.35;0.82;;;;;;;8.70;100.00;99343.91;10491193;28;20089;-78
2023/12/31 10:10:43;;;;;;;2.47;1.05;;;;;;;8.71;100.00;99348.31;10506360;28;20040;-79
2023/12/31 10:15:43;;;;;;;2.92;0.70;;;;;;;8.80;100.00;99343.38;10496547;28;20064;-81
2023/12/31 10:20:44;;;;;;;2.05;1.10;;;;;;;8.79;100.00;99330.28;10464124;28;21068;-80
2023/12/31 10:25:44;;;;;;;2.10;0.77;;;;;;;8.75;100.00;99338.88;10502683;28;20115;-79
2023/12/31 10:30:47;;;;;;;1.15;0.40;;;;;;;8.63;100.00;99344.56;10504369;28;20060;-79
2023/12/31 10:35:49;;;;;;;0.80;0.50;;;;;;;8.60;100.00;99336.66;10489877;28;20047;-79
2023/12/31 10:40:49;;;;;;;2.67;0.60;;;;;;;8.52;100.00;99332.09;10497477;28;20066;-80
2023/12/31 10:45:50;;;;;;;1.70;0.80;;;;;;;8.58;100.00;99322.69;10507980;28;20118;-79
2023/12/31 10:50:50;;;;;;;7.07;1.38;;;;;;;8.58;100.00;99328.78;10459145;28;20120;-79
2023/12/31 10:55:52;;;;;;;1.40;0.73;;;;;;;8.51;100.00;99319.88;10490403;28;20136;-81
2023/12/31 11:00:52;;;;;;;1.92;0.45;;;;;;;8.48;100.00;99330.19;10502896;28;20043;-81
2023/12/31 11:05:53;;;;;;;3.90;0.50;;;;;;;8.32;100.00;99309.69;10446725;28;20060;-81
2023/12/31 11:10:54;;;;;;;2.10;0.55;;;;;;;8.03;100.00;99304.41;10458896;28;20484;-80
2023/12/31 11:15:55;;;;;;;1.00;0.70;;;;;;;8.01;100.00;99314.81;10476461;28;20040;-79
2023/12/31 11:21:19;;;;;;;1.65;1.35;;;;;;;8.20;100.00;99315.41;10453374;28;20075;-80
2023/12/31 11:26:19;;;;;;;3.45;0.82;;;;;;;8.27;100.00;99340.84;10500854;28;20041;-80
2023/12/31 11:31:20;;;;;;;1.77;0.55;;;;;;;8.31;100.00;99307.91;10496709;27;20507;-83
2023/12/31 11:36:22;;;;;;;2.25;0.80;;;;;;;8.22;100.00;99321.56;10466495;28;20041;-79
2023/12/31 11:41:23;;;;;;;1.50;0.98;;;;;;;8.25;100.00;99329.47;10481597;28;20399;-81
2023/12/31 11:46:37;;;;;;;1.08;0.63;;;;;;;8.40;100.00;99321.22;10473225;28;20055;-81
2023/12/31 11:51:57;;;;;;;2.75;1.20;;;;;;;8.58;100.00;99313.16;10476292;28;20148;-80
2023/12/31 11:56:58;;;;;;;0.90;0.50;;;;;;;8.61;100.00;99320.16;10500347;28;20041;-78
2023/12/31 12:01:59;;;;;;;1.23;0.82;;;;;;;8.27;100.00;99330.41;10466533;28;20044;-79
2023/12/31 12:06:59;;;;;;;5.20;1.15;;;;;;;7.73;100.00;99347.72;10457981;28;20110;-78
2023/12/31 12:12:01;;;;;;;2.92;1.02;;;;;;;7.54;100.00;99340.97;10480221;28;20039;-78
2023/12/31 12:17:04;;;;;;;1.20;0.55;;;;;;;7.56;100.00;99346.25;10475085;28;20504;-78
2023/12/31 12:22:05;;;;;;;2.95;1.17;;;;;;;7.52;100.00;99326.16;10471378;28;20044;-78
2023/12/31 12:27:05;;;;;;;2.45;0.98;;;;;;;7.50;100.00;99339.09;10449000;28;20457;-79
2023/12/31 12:32:06;;;;;;;2.92;1.13;;;;;;;7.43;100.00;99360.53;10465365;28;20068;-78
2023/12/31 12:37:07;;;;;;;3.28;1.20;;;;;;;7.35;100.00;99368.94;10469443;28;20032;-81
2023/12/31 12:42:08;;;;;;;4.70;1.77;;;;;;;7.36;100.00;99382.88;10471567;28;20691;-79
2023/12/31 12:47:09;;;;;;;3.15;0.60;;;;;;;7.40;100.00;99350.91;10470629;28;20043;-81
2023/12/31 12:52:10;;;;;;;4.78;1.15;;;;;;;7.32;100.00;99378.38;10486014;28;20072;-79
2023/12/31 12:57:11;;;;;;;3.00;0.63;;;;;;;7.27;100.00;99379.94;10477336;28;20071;-81
2023/12/31 13:02:11;;;;;;;3.05;1.02;;;;;;;7.13;100.00;99379.41;10506383;28;20127;-80
2023/12/31 13:07:12;;;;;;;4.72;1.73;;;;;;;7.00;100.00;99372.84;10503850;28;20468;-81
2023/12/31 13:12:12;;;;;;;5.50;1.70;;;;;;;6.96;100.00;99369.25;10474992;28;20033;-80
2023/12/31 13:17:13;;;;;;;4.97;2.15;;;;;;;6.91;100.00;99347.38;10473664;28;20108;-80
2023/12/31 13:22:13;;;;;;;9.02;3.72;;;;;;;6.98;100.00;99369.31;10499299;28;20175;-81
2023/12/31 13:27:14;;;;;;;4.38;1.50;;;;;;;7.10;100.00;99363.66;10502397;28;20056;-80
2023/12/31 13:32:15;;;;;;;7.38;3.55;;;;;;;7.22;100.00;99374.53;10485848;28;20040;-81
2023/12/31 13:37:15;;;;;;;6.47;2.00;;;;;;;7.43;100.00;99378.75;10473256;28;20070;-82
2023/12/31 13:42:16;;;;;;;9.15;1.60;;;;;;;7.76;100.00;99372.97;10466627;28;21082;-79
2023/12/31 13:47:16;;;;;;;3.83;1.90;;;;;;;8.01;100.00;99361.69;10492680;28;20131;-79
2023/12/31 13:52:17;;;;;;;7.18;1.90;;;;;;;7.94;100.00;99365.81;10479254;28;20033;-81
2023/12/31 13:57:17;;;;;;;6.97;2.05;;;;;;;7.58;100.00;99366.28;10433389;28;20123;-81
2023/12/31 14:02:18;;;;;;;6.05;1.27;;;;;;;7.39;100.00;99371.66;10443243;28;20091;-79
2023/12/31 14:07:18;;;;;;;4.30;2.63;;;;;;;7.18;100.00;99381.34;10423175;28;20079;-80
2023/12/31 14:12:19;;;;;;;6.97;2.55;;;;;;;7.15;100.00;99389.03;10428359;28;20059;-80
2023/12/31 14:17:20;;;;;;;6.65;2.65;;;;;;;7.22;100.00;99379.75;10431936;28;20589;-79
2023/12/31 14:22:20;;;;;;;4.05;1.40;;;;;;;7.34;100.00;99372.38;10465091;28;20033;-79
2023/12/31 14:27:21;;;;;;;4.82;2.03;;;;;;;7.33;100.00;99360.19;10438444;28;20047;-81
2023/12/31 14:32:21;;;;;;;2.72;1.55;;;;;;;7.46;100.00;99366.75;10436358;28;20076;-78
2023/12/31 14:37:22;;;;;;;9.65;2.33;;;;;;;7.53;100.00;99370.44;10435681;28;20424;-78
2023/12/31 14:42:23;;;;;;;5.60;2.55;;;;;;;7.47;100.00;99378.94;10410003;28;20124;-80
2023/12/31 14:47:23;;;;;;;14.93;1.92;;;;;;;7.51;100.00;99377.31;10448171;28;20044;-81
2023/12/31 14:52:24;;;;;;;7.80;2.55;;;;;;;7.49;100.00;99381.59;10442858;28;20168;-80
2023/12/31 14:57:24;;;;;;;16.08;3.22;;;;;;;7.56;100.00;99375.75;10419848;28;20075;-79
2023/12/31 15:02:25;;;;;;;17.48;3.53;;;;;;;7.55;100.00;99379.19;10470669;28;20044;-80
2023/12/31 15:07:26;;;;;;;7.38;2.22;;;;;;;7.62;100.00;99372.50;10447455;28;20049;-80
2023/12/31 15:12:26;;;;;;;12.38;3.97;;;;;;;7.60;100.00;99375.03;10427656;28;20033;-80
2023/12/31 15:17:28;;;;;;;10.32;3.10;;;;;;;7.61;100.00;99374.22;10468160;28;20090;-80
2023/12/31 15:22:28;;;;;;;16.27;3.92;;;;;;;7.72;100.00;99371.09;10467776;28;20561;-79
2023/12/31 15:27:30;;;;;;;10.80;3.92;;;;;;;7.73;100.00;99365.97;10487262;28;20040;-80
2023/12/31 15:32:32;;;;;;;12.63;4.65;;;;;;;7.63;100.00;99385.56;10504975;28;20067;-80
2023/12/31 15:37:34;;;;;;;19.92;4.25;;;;;;;7.62;100.00;99385.53;10486298;28;20576;-80
2023/12/31 15:42:35;;;;;;;6.82;2.88;;;;;;;7.71;100.00;99379.75;10504008;28;20044;-80
2023/12/31 15:47:35;;;;;;;19.90;4.45;;;;;;;7.67;100.00;99378.78;10501677;28;20044;-80
2023/12/31 15:52:36;;;;;;;13.00;4.32;;;;;;;7.75;100.00;99374.72;10502224;28;20123;-79
2023/12/31 15:57:36;;;;;;;16.63;3.47;;;;;;;7.59;100.00;99383.69;10514154;28;20043;-80
2023/12/31 16:02:37;;;;;;;11.38;3.25;;;;;;;7.45;100.00;99382.31;10494943;28;20039;-79
2023/12/31 16:07:37;;;;;;;5.50;3.50;;;;;;;7.41;100.00;99372.59;10504161;28;20667;-79
2023/12/31 16:12:38;;;;;;;6.53;3.55;;;;;;;7.36;100.00;99385.47;10501816;28;20048;-80
2023/12/31 16:17:39;;;;;;;10.35;3.88;;;;;;;7.37;100.00;99383.75;10511544;28;20036;-80
2023/12/31 16:22:39;;;;;;;9.35;3.80;;;;;;;7.43;100.00;99391.78;10502522;28;20043;-79
2023/12/31 16:27:40;;;;;;;12.18;3.28;;;;;;;7.55;100.00;99381.81;10506816;28;20119;-79
2023/12/31 16:32:42;;;;;;;12.07;4.63;;;;;;;7.49;100.00;99387.69;10501788;28;20074;-82
2023/12/31 16:37:43;;;;;;;14.60;4.25;;;;;;;7.46;100.00;99378.88;10505332;28;20048;-79
2023/12/31 16:42:43;;;;;;;10.82;4.18;;;;;;;7.23;100.00;99393.66;10500861;28;20126;-80
2023/12/31 16:47:44;;;;;;;11.30;4.85;;;;;;;7.42;100.00;99384.78;10494292;28;20036;-80
2023/12/31 16:52:45;;;;;;;18.23;5.25;;;;;;;7.54;100.00;99380.03;10468919;28;20403;-82
2023/12/31 16:57:45;;;;;;;14.35;3.25;;;;;;;7.70;100.00;99391.91;10492752;28;20071;-80
2023/12/31 17:02:46;;;;;;;16.85;4.30;;;;;;;7.85;100.00;99388.94;10475817;28;20036;-79
2023/12/31 17:07:46;;;;;;;9.73;3.60;;;;;;;7.93;100.00;99400.50;10495191;28;20193;-80
2023/12/31 17:12:47;;;;;;;11.48;4.72;;;;;;;7.84;100.00;99394.97;10502074;28;20078;-81
2023/12/31 17:17:47;;;;;;;12.55;4.55;;;;;;;7.79;100.00;99392.22;10465574;28;20179;-80
2023/12/31 17:22:48;;;;;;;8.25;2.88;;;;;;;7.71;100.00;99395.38;10493558;28;20800;-80
2023/12/31 17:27:48;;;;;;;8.80;3.40;;;;;;;7.87;100.00;99402.91;10454537;28;20120;-81
2023/12/31 17:32:49;;;;;;;10.02;3.22;;;;;;;7.92;100.00;99413.50;10522277;27;20048;-82
2023/12/31 17:37:50;;;;;;;9.13;3.90;;;;;;;8.08;100.00;99384.53;10503419;28;20487;-80
2023/12/31 17:42:50;;;;;;;14.35;3.60;;;;;;;8.24;100.00;99424.13;10486514;28;20049;-82
2023/12/31 17:47:51;;;;;;;7.20;2.80;;;;;;;8.25;100.00;99435.44;10508756;28;20068;-83
2023/12/31 17:52:54;;;;;;;7.97;3.65;;;;;;;8.19;100.00;99444.81;10497034;28;20123;-81
2023/12/31 17:57:54;;;;;;;10.75;3.10;;;;;;;8.18;100.00;99435.22;10507713;28;20093;-84
2023/12/31 18:02:55;;;;;;;9.60;3.38;;;;;;;8.19;100.00;99429.19;10485781;28;20146;-80
2023/12/31 18:07:55;;;;;;;12.02;3.28;;;;;;;8.20;100.00;99437.91;10473125;28;20059;-82
2023/12/31 18:12:56;;;;;;;9.18;2.78;;;;;;;8.14;100.00;99458.53;10467899;28;20140;-81
2023/12/31 18:17:56;;;;;;;11.23;2.97;;;;;;;8.18;100.00;99457.81;10499905;28;20117;-81
2023/12/31 18:22:57;;;;;;;7.78;3.38;;;;;;;8.22;100.00;99463.16;10500711;28;20135;-81
2023/12/31 18:27:57;;;;;;;8.75;3.75;;;;;;;8.20;100.00;99466.56;10493168;28;20109;-80
2023/12/31 18:32:58;;;;;;;13.82;3.05;;;;;;;8.16;100.00;99464.69;10483414;28;20035;-83
2023/12/31 18:37:58;;;;;;;11.88;2.50;;;;;;;8.15;100.00;99455.09;10497519;28;20567;-82
2023/12/31 18:42:59;;;;;;;5.50;3.50;;;;;;;8.22;100.00;99459.69;10500060;28;20104;-81
2023/12/31 18:47:59;;;;;;;8.88;3.38;;;;;;;7.81;100.00;99467.78;10492323;28;20047;-81
2023/12/31 18:53:01;;;;;;;12.52;2.40;;;;;;;7.73;100.00;99462.31;10472529;28;20036;-82
2023/12/31 18:58:01;;;;;;;8.80;2.40;;;;;;;7.87;100.00;99469.75;10471199;28;20089;-80
2023/12/31 19:03:02;;;;;;;5.45;3.28;;;;;;;7.91;100.00;99461.22;10488270;28;20120;-81
2023/12/31 19:08:03;;;;;;;7.40;1.98;;;;;;;7.89;100.00;99479.38;10504289;28;20395;-82
2023/12/31 19:13:03;;;;;;;7.25;2.35;;;;;;;7.94;100.00;99476.97;10516803;28;20044;-82
2023/12/31 19:18:04;;;;;;;5.40;2.78;;;;;;;7.97;100.00;99486.59;10484677;28;20064;-81
2023/12/31 19:23:05;;;;;;;3.85;2.13;;;;;;;7.94;100.00;99472.63;10479400;28;20032;-82
2023/12/31 19:28:05;;;;;;;9.60;2.45;;;;;;;7.99;100.00;99480.63;10494908;28;20119;-81
2023/12/31 19:33:07;;;;;;;13.50;2.70;;;;;;;8.04;100.00;99473.84;10475647;28;20486;-82
2023/12/31 19:38:07;;;;;;;5.35;3.00;;;;;;;7.95;100.00;99478.72;10478723;28;20496;-81
2023/12/31 19:43:07;;;;;;;8.77;4.25;;;;;;;7.81;100.00;99478.22;10499903;28;20063;-80
2023/12/31 19:48:08;;;;;;;7.32;1.88;;;;;;;7.83;100.00;99457.44;10496842;28;20036;-80
2023/12/31 19:53:08;;;;;;;4.07;2.10;;;;;;;7.83;100.00;99473.94;10485565;28;20063;-82
2023/12/31 19:58:09;;;;;;;5.05;2.90;;;;;;;7.86;100.00;99474.06;10516041;28;20122;-80
2023/12/31 20:03:10;;;;;;;10.60;2.80;;;;;;;7.98;100.00;99501.38;10511871;28;20126;-81
2023/12/31 20:08:11;;;;;;;8.03;3.60;;;;;;;8.01;100.00;99499.78;10491964;28;20040;-80
2023/12/31 20:13:11;;;;;;;4.53;2.78;;;;;;;8.00;100.00;99461.53;10485958;28;20127;-79
2023/12/31 20:18:12;;;;;;;3.08;1.60;;;;;;;8.08;100.00;99503.50;10467843;28;20161;-80
2023/12/31 20:23:13;;;;;;;13.55;3.00;;;;;;;7.97;100.00;99500.50;10507254;28;20432;-81
2023/12/31 20:28:13;;;;;;;3.17;1.83;;;;;;;7.82;100.00;99503.44;10480320;28;20046;-80
2023/12/31 20:33:14;;;;;;;3.88;2.33;;;;;;;7.86;100.00;99520.06;10502634;27;20089;-80
2023/12/31 20:38:14;;;;;;;6.93;2.20;;;;;;;7.84;100.00;99499.16;10511319;28;20116;-80
2023/12/31 20:43:15;;;;;;;7.97;2.33;;;;;;;7.84;100.00;99513.94;10485827;28;20033;-80
2023/12/31 20:48:15;;;;;;;6.57;2.88;;;;;;;7.77;100.00;99518.91;10484777;28;20404;-81
2023/12/31 20:53:17;;;;;;;14.90;2.95;;;;;;;7.47;100.00;99526.44;10456668;28;20071;-82
2023/12/31 20:58:18;;;;;;;11.60;2.80;;;;;;;7.03;100.00;99545.53;10512805;28;20063;-81
2023/12/31 21:03:18;;;;;;;12.32;3.53;;;;;;;6.58;100.00;99579.22;10492516;28;20567;-79
2023/12/31 21:08:22;;;;;;;8.75;3.20;;;;;;;6.23;100.00;99586.34;10472518;28;20040;-79
2023/12/31 21:13:23;;;;;;;5.03;2.13;;;;;;;5.96;100.00;99590.34;10500439;28;20045;-78
2023/12/31 21:18:23;;;;;;;10.40;2.25;;;;;;;5.78;100.00;99586.91;10498255;28;20041;-79
2023/12/31 21:23:23;;;;;;;9.32;3.00;;;;;;;5.72;100.00;99609.19;10501275;28;20041;-79
2023/12/31 21:28:26;;;;;;;5.40;2.83;;;;;;;5.63;100.00;99592.25;10482469;28;20131;-79
2023/12/31 21:33:26;;;;;;;;;;;;;;;5.64;100.00;99615.72;10478670;28;20040;-80
2023/12/31 21:38:27;;;;;;;10.80;2.67;;;;;;;5.57;100.00;99634.41;10487605;28;20351;-83
2023/12/31 21:43:27;;;;;;;7.60;3.05;;;;;;;5.60;100.00;99639.75;10481881;28;20066;-80
2023/12/31 21:48:28;;;;;;;12.98;4.03;;;;;;;5.68;100.00;99630.63;10498791;28;20048;-81
2023/12/31 21:53:28;;;;;;;10.20;2.78;;;;;;;5.68;100.00;99627.13;10465534;28;20048;-82
2023/12/31 21:58:29;;;;;;;11.50;4.95;;;;;;;5.66;100.00;99624.47;10500411;28;20059;-83
2023/12/31 22:03:31;;;;;;;9.90;5.40;;;;;;;5.67;100.00;99617.53;10504708;28;20193;-82
2023/12/31 22:08:31;;;;;;;13.85;4.43;;;;;;;5.67;100.00;99610.66;10471140;28;20125;-82
2023/12/31 22:13:32;;;;;;;7.75;2.17;;;;;;;5.68;100.00;99608.94;10491578;28;20046;-82
2023/12/31 22:18:32;;;;;;;7.63;2.47;;;;;;;5.47;100.00;99607.09;10505965;28;20120;-82
2023/12/31 22:23:33;;;;;;;14.43;4.40;;;;;;;5.55;100.00;99605.75;10471315;28;20130;-83
2023/12/31 22:28:33;;;;;;;16.42;5.18;;;;;;;5.76;100.00;99606.72;10480244;28;20487;-81
2023/12/31 22:33:34;;;;;;;8.93;3.58;;;;;;;5.83;100.00;99601.88;10494629;28;20152;-83
2023/12/31 22:38:34;;;;;;;11.57;4.43;;;;;;;6.08;100.00;99592.63;10485693;28;20128;-82
2023/12/31 22:43:35;;;;;;;6.25;2.58;;;;;;;6.24;100.00;99564.75;10496819;28;20068;-82
2023/12/31 22:48:35;;;;;;;11.38;3.08;;;;;;;6.36;100.00;99551.41;10508715;28;20043;-81
2023/12/31 22:53:36;;;;;;;9.35;2.88;;;;;;;6.28;100.00;99557.16;10483030;28;20542;-82
2023/12/31 22:58:36;;;;;;;10.90;2.63;;;;;;;6.39;100.00;99548.94;10513711;28;20124;-82
2023/12/31 23:03:37;;;;;;;7.43;3.45;;;;;;;6.57;100.00;99547.13;10489892;28;20048;-82
2023/12/31 23:08:37;;;;;;;8.15;2.70;;;;;;;6.75;100.00;99556.53;10490793;28;20694;-82
2023/12/31 23:13:40;;;;;;;5.72;2.63;;;;;;;6.92;100.00;99567.63;10504526;28;20071;-82
2023/12/31 23:18:40;;;;;;;10.13;4.05;;;;;;;6.90;100.00;99571.88;10472840;28;20082;-81